Terminal Aerodrome Forecast
Issued by NWS

Home | Current Version | Previous Version | Text Only | Print | Product List | Glossary On
Versions: 1 2 3 4 5 6 7 8 9 10 11 12 13 14 15 16 17 18 19 20 21 22 23 24 25 26 27 28 29 30 31 32 33 34 35 36 37
000
FTUS43 KGRB 271726
TAFRHI
TAF
KRHI 271726Z 2718/2818 31010G15KT 2SM -SNPL BR SCT006 OVC010
      TEMPO 2718/2720 1/2SM SN FZFG BKN005
     FM272000 30011G17KT 3SM -SN BR OVC009
     FM272200 27011KT 5SM BR VCSH OVC010
     FM280000 26009KT P6SM VCSH OVC015
     FM280300 26008KT P6SM BKN015
     FM281700 26008KT P6SM SCT020 SCT100=

USA.gov is the U.S. government's official web portal to all federal, state and local government web resources and services.